Time;durP1;ratioP1;P1;durP2;ratioP2;P2;SDS_P1;SDS_P2;PMS_P1;PMS_P2;Temp;Humidity;BMP_temperature;BMP_pressure;BME280_temperature;BME280_humidity;BME280_pressure;Samples;Min_cycle;Max_cycle;Signal;HPM_P1;HPM_P2
2022/06/05 00:01:26;;;;;;;16.80;15.27;;;;;;;;;;4976576;28;20916;-65
2022/06/05 00:03:53;;;;;;;16.60;15.20;;;;;;;;;;4973968;28;20441;-66
2022/06/05 00:06:42;;;;;;;16.70;15.13;;;;;;;;;;4980634;28;20532;-66
2022/06/05 00:09:13;;;;;;;15.93;14.60;;;;;;;;;;4978003;28;20514;-66
2022/06/05 00:11:48;;;;;;;15.83;14.53;;;;;;;;;;4967937;28;20940;-66
2022/06/05 00:14:15;;;;;;;16.13;14.57;;;;;;;;;;4973912;28;20452;-66
2022/06/05 00:16:41;;;;;;;17.27;15.77;;;;;;;;;;4978736;28;20429;-66
2022/06/05 00:19:07;;;;;;;19.77;17.70;;;;;;;;;;4971643;28;20817;-66
2022/06/05 00:21:33;;;;;;;15.27;14.07;;;;;;;;;;4972403;28;20429;-66
2022/06/05 00:24:00;;;;;;;16.30;14.90;;;;;;;;;;4973040;28;20564;-65
2022/06/05 00:26:26;;;;;;;16.10;14.67;;;;;;;;;;4979454;28;20976;-66
2022/06/05 00:28:52;;;;;;;18.40;16.63;;;;;;;;;;4981218;28;20425;-65
2022/06/05 00:31:24;;;;;;;16.47;15.07;;;;;;;;;;4972897;28;20421;-66
2022/06/05 00:33:50;;;;;;;17.27;15.70;;;;;;;;;;4973444;28;20471;-66
2022/06/05 00:36:43;;;;;;;15.20;13.90;;;;;;;;;;4973233;28;20421;-66
2022/06/05 00:39:20;;;;;;;17.40;15.70;;;;;;;;;;4967347;28;20464;-66
2022/06/05 00:41:58;;;;;;;17.40;15.73;;;;;;;;;;4976325;28;20515;-66
2022/06/05 00:44:30;;;;;;;16.30;15.00;;;;;;;;;;4983460;28;20775;-65
2022/06/05 00:46:56;;;;;;;17.27;15.77;;;;;;;;;;4973174;28;20549;-66
2022/06/05 00:49:24;;;;;;;16.47;15.00;;;;;;;;;;4984670;28;20413;-66
2022/06/05 00:51:50;;;;;;;16.70;15.13;;;;;;;;;;4981698;28;20453;-66
2022/06/05 00:54:16;;;;;;;17.10;15.50;;;;;;;;;;4985037;28;20893;-66
2022/06/05 00:56:42;;;;;;;17.70;16.20;;;;;;;;;;4986364;28;20546;-66
2022/06/05 00:59:10;;;;;;;17.20;15.70;;;;;;;;;;4972739;28;20552;-66
2022/06/05 01:01:36;;;;;;;16.83;15.33;;;;;;;;;;4976543;28;20443;-65
2022/06/05 01:04:02;;;;;;;16.90;15.40;;;;;;;;;;4985975;28;20439;-65
2022/06/05 01:06:29;;;;;;;21.83;15.83;;;;;;;;;;4984678;28;20969;-65
2022/06/05 01:08:55;;;;;;;18.50;16.90;;;;;;;;;;4985753;28;20434;-64
2022/06/05 01:11:27;;;;;;;18.07;16.17;;;;;;;;;;4983923;28;20539;-65
2022/06/05 01:13:56;;;;;;;16.80;15.20;;;;;;;;;;4971400;28;20445;-65
2022/06/05 01:16:22;;;;;;;17.73;16.20;;;;;;;;;;4979336;28;20451;-63
2022/06/05 01:18:52;;;;;;;18.87;17.27;;;;;;;;;;4975441;28;20492;-65
2022/06/05 01:21:51;;;;;;;17.90;16.33;;;;;;;;;;4974118;28;20790;-66
2022/06/05 01:24:36;;;;;;;17.57;16.03;;;;;;;;;;4959031;28;20556;-66
2022/06/05 01:27:05;;;;;;;17.87;16.27;;;;;;;;;;4975139;28;20412;-66
2022/06/05 01:29:37;;;;;;;18.40;16.70;;;;;;;;;;4985157;28;20454;-66
2022/06/05 01:32:05;;;;;;;18.50;16.87;;;;;;;;;;4973315;28;20504;-65
2022/06/05 01:34:36;;;;;;;19.57;17.83;;;;;;;;;;4973557;28;20834;-65
2022/06/05 01:37:04;;;;;;;19.80;18.00;;;;;;;;;;4972671;28;20692;-65
2022/06/05 01:39:30;;;;;;;19.07;17.47;;;;;;;;;;4976496;28;20972;-66
2022/06/05 01:41:59;;;;;;;21.27;19.33;;;;;;;;;;4986642;28;20420;-66
2022/06/05 01:44:45;;;;;;;18.47;16.87;;;;;;;;;;4995653;28;20424;-65
2022/06/05 01:47:27;;;;;;;19.20;17.50;;;18.70;1.00;;;;;;4981604;28;20476;-66
2022/06/05 01:49:54;;;;;;;18.93;17.30;;;;;;;;;;4971812;28;20419;-65
2022/06/05 01:52:30;;;;;;;22.43;20.50;;;;;;;;;;4982682;28;20524;-65
2022/06/05 01:55:11;;;;;;;18.07;16.40;;;;;;;;;;4976336;28;20526;-66
2022/06/05 01:57:37;;;;;;;20.77;19.07;;;;;;;;;;4968219;28;20894;-65
2022/06/05 02:00:09;;;;;;;20.20;18.30;;;;;;;;;;4976097;28;20466;-66
2022/06/05 02:02:40;;;;;;;21.10;19.30;;;;;;;;;;4981408;28;20481;-65
2022/06/05 02:05:08;;;;;;;24.40;19.87;;;;;;;;;;4975102;28;20428;-65
2022/06/05 02:07:43;;;;;;;22.00;20.10;;;18.40;1.00;;;;;;4975376;28;20421;-66
2022/06/05 02:10:19;;;;;;;20.00;18.37;;;;;;;;;;4979051;28;20521;-66
2022/06/05 02:12:45;;;;;;;21.77;19.73;;;;;;;;;;4970363;28;20487;-66
2022/06/05 02:15:11;;;;;;;21.70;19.80;;;;;;;;;;4974878;28;20413;-66
2022/06/05 02:17:38;;;;;;;21.53;19.60;;;;;;;;;;4981623;28;20731;-66
2022/06/05 02:20:05;;;;;;;22.30;20.40;;;;;;;;;;4984299;28;20506;-66
2022/06/05 02:22:34;;;;;;;24.03;21.67;;;;;;;;;;4975604;28;20433;-65
2022/06/05 02:25:00;;;;;;;23.60;21.50;;;18.40;1.00;;;;;;4979366;28;20432;-65
2022/06/05 02:27:27;;;;;;;24.60;22.40;;;18.10;1.00;;;;;;4986679;28;20445;-66
2022/06/05 02:29:55;;;;;;;23.30;21.10;;;18.00;1.00;;;;;;4985713;28;20415;-66
2022/06/05 02:32:21;;;;;;;24.20;22.00;;;;;;;;;;4976769;28;20916;-65
2022/06/05 02:34:50;;;;;;;24.17;21.93;;;;;;;;;;4975096;28;20431;-67
2022/06/05 02:37:28;;;;;;;23.50;21.37;;;;;;;;;;4976187;28;20440;-66
2022/06/05 02:40:00;;;;;;;22.57;20.33;;;;;;;;;;4979234;28;20518;-66
2022/06/05 02:42:32;;;;;;;24.87;22.47;;;;;;;;;;4976173;28;20991;-65
2022/06/05 02:44:58;;;;;;;24.37;22.10;;;;;;;;;;4974612;28;20421;-65
2022/06/05 02:47:33;;;;;;;23.83;21.63;;;17.80;1.00;;;;;;4976714;28;20420;-64
2022/06/05 02:50:24;;;;;;;23.07;21.17;;;;;;;;;;4975000;28;20187;-65
2022/06/05 02:52:51;;;;;;;23.37;21.27;;;17.80;1.00;;;;;;4988589;28;20527;-64
2022/06/05 02:55:20;;;;;;;23.90;21.93;;;;;;;;;;4994204;28;20421;-65
2022/06/05 02:57:46;;;;;;;22.03;20.20;;;;;;;;;;4975786;28;20456;-63
2022/06/05 03:00:15;;;;;;;24.03;21.93;;;;;;;;;;4976528;28;20498;-65
2022/06/05 03:05:26;;;;;;;21.83;19.77;;;;;;;;;;4975238;28;20598;-65
2022/06/05 03:07:52;;;;;;;22.80;20.90;;;;;;;;;;4974019;28;20505;-64
2022/06/05 03:10:18;;;;;;;21.73;19.80;;;;;;;;;;4977276;28;20435;-65
2022/06/05 03:12:45;;;;;;;25.03;22.53;;;;;;;;;;4987404;28;20827;-64
2022/06/05 03:15:11;;;;;;;25.63;23.17;;;;;;;;;;4986577;28;20466;-65
2022/06/05 03:17:37;;;;;;;23.03;20.90;;;17.60;1.00;;;;;;4988134;28;20420;-65
2022/06/05 03:20:04;;;;;;;23.77;21.47;;;;;;;;;;4985334;28;20468;-65
2022/06/05 03:22:30;;;;;;;24.53;22.13;;;;;;;;;;4982872;28;20189;-65
2022/06/05 03:24:56;;;;;;;22.73;20.73;;;;;;;;;;4974364;28;20425;-64
2022/06/05 03:27:23;;;;;;;23.77;21.27;;;;;;;;;;4974407;28;20515;-65
2022/06/05 03:29:49;;;;;;;22.90;20.30;;;;;;;;;;4974773;28;20508;-64
2022/06/05 03:32:15;;;;;;;22.50;20.50;;;;;;;;;;4987946;28;20424;-65
2022/06/05 03:34:41;;;;;;;22.73;20.73;;;;;;;;;;4987367;28;20901;-66
2022/06/05 03:37:07;;;;;;;23.47;21.47;;;;;;;;;;4980845;28;20421;-66
2022/06/05 03:39:33;;;;;;;25.07;22.73;;;;;;;;;;4980608;28;20467;-65
2022/06/05 03:41:59;;;;;;;23.37;21.30;;;;;;;;;;4982302;28;20507;-65
2022/06/05 03:44:26;;;;;;;21.93;19.83;;;;;;;;;;4975007;28;20812;-66
2022/06/05 03:46:52;;;;;;;24.40;22.00;;;;;;;;;;4975260;28;20413;-66
2022/06/05 03:49:18;;;;;;;23.53;21.43;;;;;;;;;;4977858;28;20425;-65
2022/06/05 03:51:48;;;;;;;23.07;20.60;;;;;;;;;;4991769;28;20500;-69
2022/06/05 03:54:14;;;;;;;22.03;20.00;;;;;;;;;;4985017;28;20441;-67
2022/06/05 03:56:40;;;;;;;23.10;20.97;;;;;;;;;;4989378;28;20420;-67
2022/06/05 03:59:06;;;;;;;25.13;22.77;;;;;;;;;;4986188;28;20451;-66
2022/06/05 04:01:32;;;;;;;20.87;19.00;;;;;;;;;;4976300;28;20896;-65
2022/06/05 04:03:58;;;;;;;26.73;24.43;;;;;;;;;;4979364;28;20523;-67
2022/06/05 04:06:27;;;;;;;20.07;18.27;;;;;;;;;;4985366;28;20508;-68
2022/06/05 04:08:54;;;;;;;21.03;19.03;;;;;;;;;;4987746;28;20483;-67
2022/06/05 04:11:20;;;;;;;22.27;19.30;;;;;;;;;;4986153;28;20901;-66
2022/06/05 04:13:46;;;;;;;20.77;18.87;;;;;;;;;;4980257;28;20476;-67
2022/06/05 04:16:14;;;;;;;21.23;19.47;;;;;;;;;;4974510;28;21185;-67
2022/06/05 04:18:40;;;;;;;21.60;19.10;;;;;;;;;;4978503;28;20495;-66
2022/06/05 04:21:07;;;;;;;21.20;19.27;;;;;;;;;;4985816;28;20431;-67
2022/06/05 04:23:33;;;;;;;20.33;18.63;;;;;;;;;;4986057;28;20443;-66
2022/06/05 04:25:59;;;;;;;21.60;19.60;;;;;;;;;;4986798;28;20494;-67
2022/06/05 04:28:25;;;;;;;21.03;19.00;;;;;;;;;;4983674;28;20412;-67
2022/06/05 04:30:51;;;;;;;20.13;18.50;;;;;;;;;;4986572;28;20910;-67
2022/06/05 04:33:18;;;;;;;19.83;18.03;;;;;;;;;;4985801;28;20455;-66
2022/06/05 04:35:44;;;;;;;19.30;17.60;;;;;;;;;;4987425;28;20506;-68
2022/06/05 04:38:11;;;;;;;20.17;18.47;;;;;;;;;;4983697;28;20520;-66
2022/06/05 04:40:37;;;;;;;20.17;18.10;;;;;;;;;;4966955;28;20457;-67
2022/06/05 04:43:03;;;;;;;18.63;17.03;;;;;;;;;;4972976;28;20536;-66
2022/06/05 04:45:29;;;;;;;19.17;17.43;;;;;;;;;;4973701;28;20427;-67
2022/06/05 04:47:55;;;;;;;18.97;17.27;;;;;;;;;;4982494;28;20428;-67
2022/06/05 04:50:21;;;;;;;17.17;15.67;;;;;;;;;;4975194;28;20511;-67
2022/06/05 04:52:48;;;;;;;18.47;16.97;;;;;;;;;;4976683;28;20857;-67
2022/06/05 04:55:14;;;;;;;17.13;15.50;;;;;;;;;;4984844;28;20431;-68
2022/06/05 04:57:40;;;;;;;18.10;16.60;;;;;;;;;;4986625;28;20503;-68
2022/06/05 05:00:07;;;;;;;17.47;16.07;;;;;;;;;;4980693;28;20460;-67
2022/06/05 05:02:33;;;;;;;17.23;15.73;;;;;;;;;;4972234;28;20805;-67
2022/06/05 05:04:59;;;;;;;16.27;14.87;;;;;;;;;;4976090;28;20802;-66
2022/06/05 05:07:25;;;;;;;17.50;15.90;;;;;;;;;;4985104;28;20420;-67
2022/06/05 05:09:51;;;;;;;15.90;14.60;;;;;;;;;;4986212;28;20486;-67
2022/06/05 05:12:18;;;;;;;18.10;16.50;;;;;;;;;;4976118;28;20421;-66
2022/06/05 05:14:45;;;;;;;16.50;15.07;;;;;;;;;;4992871;28;20416;-64
2022/06/05 05:17:11;;;;;;;16.90;15.50;;;;;;;;;;4988447;28;20748;-65
2022/06/05 05:19:37;;;;;;;17.07;15.37;;;;;;;;;;5001850;28;20579;-67
2022/06/05 05:22:03;;;;;;;15.70;14.30;;;;;;;;;;4997058;28;20423;-67
2022/06/05 05:24:29;;;;;;;16.03;14.70;;;;;;;;;;4983643;28;20877;-67
2022/06/05 05:26:55;;;;;;;16.63;15.23;;;;;;;;;;4980060;28;20472;-66
2022/06/05 05:29:22;;;;;;;15.93;14.63;;;;;;;;;;4981036;28;20425;-66
2022/06/05 05:31:49;;;;;;;17.57;16.10;;;;;;;;;;4972840;28;20425;-67
2022/06/05 05:34:15;;;;;;;16.33;14.83;;;;;;;;;;4983552;28;20455;-66
2022/06/05 05:36:41;;;;;;;15.20;14.00;;;;;;;;;;4987486;28;20481;-66
2022/06/05 05:42:04;;;;;;;14.93;13.63;;;;;;;;;;4981100;28;20462;-66
2022/06/05 05:44:51;;;;;;;14.00;12.87;;;;;;;;;;4976640;28;20404;-64
2022/06/05 05:47:25;;;;;;;13.63;12.43;;;;;;;;;;4980813;28;20887;-66
2022/06/05 05:49:55;;;;;;;13.00;12.10;;;;;;;;;;5001577;28;20820;-66
2022/06/05 05:52:22;;;;;;;12.10;10.90;;;;;;;;;;4985348;28;20436;-66
2022/06/05 05:54:48;;;;;;;13.10;12.00;;;;;;;;;;4989870;28;20499;-66
2022/06/05 05:57:14;;;;;;;13.03;12.00;;;;;;;;;;4983189;28;20411;-69
2022/06/05 05:59:40;;;;;;;12.67;11.57;;;;;;;;;;4987157;28;20524;-68
2022/06/05 06:02:11;;;;;;;14.33;12.13;;;;;;;;;;4979862;28;20428;-65
2022/06/05 06:04:37;;;;;;;17.10;13.67;;;;;;;;;;4975747;28;20431;-65
2022/06/05 06:07:03;;;;;;;13.87;12.47;;;;;;;;;;4978956;28;20589;-67
2022/06/05 06:09:29;;;;;;;14.13;10.93;;;;;;;;;;4994140;28;20428;-65
2022/06/05 06:11:56;;;;;;;12.40;9.47;;;;;;;;;;4991770;28;20420;-67
2022/06/05 06:14:22;;;;;;;11.00;10.00;;;;;;;;;;4987686;28;20452;-68
2022/06/05 06:16:48;;;;;;;13.03;9.13;;;;;;;;;;4989402;28;20840;-67
2022/06/05 06:19:14;;;;;;;6.17;5.00;;;;;;;;;;4989225;28;20464;-65
2022/06/05 06:21:40;;;;;;;11.90;6.37;;;;;;;;;;4992864;28;20454;-65
2022/06/05 06:24:06;;;;;;;10.23;5.67;;;;;;;;;;4998716;28;20539;-67
2022/06/05 06:26:32;;;;;;;12.23;5.90;;;;;;;;;;4988484;28;20452;-69
2022/06/05 06:28:58;;;;;;;11.70;4.50;;;;;;;;;;4993929;28;20427;-71
2022/06/05 06:31:24;;;;;;;10.33;4.27;;;;;;;;;;5002418;28;20473;-70
2022/06/05 06:33:50;;;;;;;6.63;5.30;;;;;;;;;;4984252;28;20511;-70
2022/06/05 06:36:17;;;;;;;16.57;5.13;;;;;;;;;;4983058;28;20428;-69
2022/06/05 06:38:43;;;;;;;6.17;5.03;;;;;;;;;;4979933;28;20503;-68
2022/06/05 06:41:13;;;;;;;9.67;4.93;;;;;;;;;;4979974;28;20862;-70
2022/06/05 06:43:40;;;;;;;5.63;4.67;;;;;;;;;;4976773;28;20440;-68
2022/06/05 06:46:07;;;;;;;6.37;4.77;;;;;;;;;;4984921;28;20416;-70
2022/06/05 06:48:33;;;;;;;7.00;5.20;;;;;;;;;;4974103;28;20433;-69
2022/06/05 06:51:00;;;;;;;11.10;5.30;;;;;;;;;;4974732;28;20436;-70
2022/06/05 06:53:27;;;;;;;8.77;4.90;;;;;;;;;;4985399;28;20448;-69
2022/06/05 06:55:53;;;;;;;10.30;5.77;;;;;;;;;;4983998;28;20438;-69
2022/06/05 06:58:19;;;;;;;7.50;5.60;;;;;;;;;;4981846;28;21198;-69
2022/06/05 07:00:45;;;;;;;6.47;5.87;;;;;;;;;;4972988;28;20472;-68
2022/06/05 07:03:12;;;;;;;7.37;5.60;;;;;;;;;;4974582;28;20508;-68
2022/06/05 07:05:39;;;;;;;7.40;5.87;;;;;;;;;;4976362;28;20448;-69
2022/06/05 07:08:05;;;;;;;10.20;6.00;;;;;;;;;;4973517;28;20453;-68
2022/06/05 07:10:31;;;;;;;6.23;5.63;;;;;;;;;;4984242;28;20449;-68
2022/06/05 07:12:57;;;;;;;6.73;5.40;;;;;;;;;;4971426;28;20933;-69
2022/06/05 07:15:23;;;;;;;6.20;5.70;;;;;;;;;;4977328;28;20515;-69
2022/06/05 07:17:50;;;;;;;9.40;6.47;;;;;;;;;;4974361;28;20417;-68
2022/06/05 07:20:16;;;;;;;7.20;6.50;;;;;;;;;;4973181;28;20488;-69
2022/06/05 07:22:42;;;;;;;6.77;6.17;;;;;;;;;;4972846;28;20445;-68
2022/06/05 07:25:08;;;;;;;7.10;6.03;;;;;;;;;;4973819;28;20769;-70
2022/06/05 07:27:34;;;;;;;5.50;5.00;;;;;;;;;;4973805;28;20968;-69
2022/06/05 07:30:00;;;;;;;6.30;5.70;;;;;;;;;;4972607;28;20512;-69
2022/06/05 07:32:26;;;;;;;5.93;4.60;;;;;;;;;;4974870;28;20514;-67
2022/06/05 07:34:52;;;;;;;5.63;4.07;;;;;;;;;;4974284;28;20424;-70
2022/06/05 07:37:19;;;;;;;5.00;4.60;;;;;;;;;;4971753;28;20495;-68
2022/06/05 07:39:45;;;;;;;5.87;4.20;;;;;;;;;;4972638;28;20457;-70
2022/06/05 07:42:11;;;;;;;3.67;3.37;;;;;;;;;;4973098;28;20827;-67
2022/06/05 07:44:37;;;;;;;4.23;3.30;;;;;;;;;;4970813;28;20441;-70
2022/06/05 07:47:12;;;;;;;5.10;3.50;;;;;;;;;;4970509;28;20435;-68
2022/06/05 07:49:39;;;;;;;4.10;2.67;;;;;;;;;;4970162;28;21090;-68
2022/06/05 07:54:50;;;;;;;4.23;3.30;;;;;;;;;;4972277;28;20416;-70
2022/06/05 07:57:20;;;;;;;5.00;3.60;;;;;;;;;;4972320;28;20409;-68
2022/06/05 07:59:47;;;;;;;4.90;3.40;;;;;;;;;;4972292;28;20973;-70
2022/06/05 08:02:15;;;;;;;3.37;3.07;;;;;;;;;;4974227;28;20520;-69
2022/06/05 08:04:42;;;;;;;3.40;3.10;;;;;;;;;;4972042;28;20423;-69
2022/06/05 08:07:10;;;;;;;3.23;2.90;;;;;;;;;;4972828;28;20429;-71
2022/06/05 08:09:37;;;;;;;2.43;2.23;;;;;;;;;;4974317;28;20474;-68
2022/06/05 08:12:03;;;;;;;3.50;2.90;;;;;;;;;;4973379;28;20448;-70
2022/06/05 08:14:34;;;;;;;2.80;2.23;;;;;;;;;;4973205;28;20455;-71
2022/06/05 08:17:01;;;;;;;3.50;3.03;;;;;;;;;;4972511;28;20444;-68
2022/06/05 08:19:27;;;;;;;5.07;2.87;;;;;;;;;;4972877;28;20471;-67
2022/06/05 08:21:53;;;;;;;12.77;4.37;;;;;;;;;;4974248;28;20417;-68
2022/06/05 08:24:20;;;;;;;3.30;3.00;;;;;;;;;;4974426;28;20523;-69
2022/06/05 08:26:46;;;;;;;4.33;2.97;;;;;;;;;;4971992;28;20934;-70
2022/06/05 08:29:12;;;;;;;5.00;2.70;;;;;;;;;;4972271;28;20503;-70
2022/06/05 08:31:38;;;;;;;5.17;3.10;;;;;;;;;;4973657;28;20494;-70
2022/06/05 08:34:05;;;;;;;3.10;2.80;;;;;;;;;;4973687;28;20459;-69
2022/06/05 08:36:32;;;;;;;2.90;2.60;;;;;;;;;;4974242;28;20420;-71
2022/06/05 08:41:47;;;;;;;3.67;2.80;;;;;;;;;;4963252;28;20455;-69
2022/06/05 08:44:25;;;;;;;2.77;2.33;;;;;;;;;;4973287;28;20910;-70
2022/06/05 08:46:51;;;;;;;3.67;2.10;;;;;;;;;;4972645;28;20420;-68
2022/06/05 08:49:22;;;;;;;2.10;1.80;;;;;;;;;;4973289;28;20980;-70
2022/06/05 08:51:57;;;;;;;2.90;1.80;;;;;;;;;;4972740;28;20956;-68
2022/06/05 08:54:32;;;;;;;2.27;2.07;;;;;;;;;;4974405;28;20446;-70
2022/06/05 08:57:04;;;;;;;4.10;2.43;;;;;;;;;;4978997;28;20412;-68
2022/06/05 08:59:36;;;;;;;2.30;2.00;;;;;;;;;;4979236;28;20474;-68
2022/06/05 09:02:09;;;;;;;2.03;1.53;;;;;;;;;;4978613;28;20411;-69
2022/06/05 09:04:41;;;;;;;3.10;1.83;;;;;;;;;;4979319;28;20425;-70
2022/06/05 09:07:11;;;;;;;2.90;1.60;;;;;;;;;;4968068;28;20184;-72
2022/06/05 09:09:44;;;;;;;1.70;1.40;;;;;;;;;;4971094;28;20507;-67
2022/06/05 09:12:14;;;;;;;1.80;1.20;;;;;;;;;;4970848;28;20428;-69
2022/06/05 09:14:40;;;;;;;2.33;1.57;;;;;;;;;;4974100;28;20409;-69
2022/06/05 09:17:11;;;;;;;2.00;1.33;;;;;;;;;;4978638;28;20419;-70
2022/06/05 09:19:37;;;;;;;2.10;1.50;;;;;;;;;;4973837;28;20192;-69
2022/06/05 09:22:09;;;;;;;8.30;1.93;;;;;;;;;;4979974;28;20310;-70
2022/06/05 09:24:50;;;;;;;1.80;1.13;;;;;;;;;;4977454;28;20176;-71
2022/06/05 09:27:28;;;;;;;3.95;1.80;;;;;;;;;;4973490;28;20235;-69
2022/06/05 09:29:54;;;;;;;2.40;1.10;;;;;;;;;;4985685;28;20179;-69
2022/06/05 09:32:29;;;;;;;1.77;1.23;;;;;;;;;;4984404;28;20184;-73
2022/06/05 09:34:58;;;;;;;1.53;1.20;;;;;;;;;;4985035;28;20180;-70
2022/06/05 09:37:37;;;;;;;3.33;1.60;;;;;;;;;;4998934;28;20179;-70
2022/06/05 09:40:23;;;;;;;2.53;1.20;;;;;;;;;;4968902;28;20774;-70
2022/06/05 09:42:58;;;;;;;2.93;1.40;;;;;;;;;;4972516;28;20451;-70
2022/06/05 09:45:24;;;;;;;2.17;1.20;;;;;;;;;;4963367;28;20444;-69
2022/06/05 09:47:56;;;;;;;2.27;1.13;;;;;;;;;;4971949;28;20447;-69
2022/06/05 09:50:25;;;;;;;2.07;1.60;;;;;;;;;;4972166;28;20506;-71
2022/06/05 09:52:51;;;;;;;4.00;1.83;;;;;;;;;;4980464;28;20442;-70
2022/06/05 09:55:21;;;;;;;1.60;1.50;;;;;;;;;;4983900;28;20502;-69
2022/06/05 10:00:43;;;;;;;2.00;1.70;;;;;;;;;;4971196;28;20455;-69
2022/06/05 10:03:21;;;;;;;2.33;1.60;;;;;;;;;;4973570;28;20428;-68
2022/06/05 10:06:12;;;;;;;3.63;1.70;;;;;;;;;;4985465;28;20562;-71
2022/06/05 10:08:41;;;;;;;5.50;1.87;;;;;;;;;;4984874;28;20912;-70
2022/06/05 10:11:18;;;;;;;2.20;1.90;;;;;;;;;;4984480;28;20441;-70
2022/06/05 10:13:50;;;;;;;2.20;1.70;;;;;;;;;;4965254;28;20436;-69
2022/06/05 10:16:28;;;;;;;2.80;1.67;;;;;;;;;;4977066;28;20503;-68
2022/06/05 10:18:59;;;;;;;2.93;1.60;;;;;;;;;;4972375;28;20552;-70
2022/06/05 10:21:32;;;;;;;1.83;1.40;;;;;;;;;;4979579;28;20404;-68
2022/06/05 10:24:04;;;;;;;4.33;1.90;;;;;;;;;;4975051;28;20510;-72
2022/06/05 10:26:33;;;;;;;1.73;1.53;;;;;;;;;;4974332;28;20994;-70
2022/06/05 10:29:11;;;;;;;1.80;1.30;;;;;;;;;;4976890;28;20424;-70
2022/06/05 10:31:38;;;;;;;2.30;1.80;;;;;;;;;;4974504;28;20403;-71
2022/06/05 10:34:04;;;;;;;1.87;1.67;;;;;;;;;;4971713;28;21088;-69
2022/06/05 10:36:44;;;;;;;2.30;1.77;;;;;;;;;;4971630;28;68126;-71
2022/06/05 10:39:16;;;;;;;2.60;1.73;;;;;;;;;;4967677;28;20761;-71
2022/06/05 10:41:47;;;;;;;5.17;1.87;;;;;;;;;;4973761;28;20751;-70
2022/06/05 10:44:14;;;;;;;2.27;2.07;;;;;;;;;;4971761;28;20503;-71
2022/06/05 10:46:42;;;;;;;2.13;1.40;;;;;;;;;;4968222;28;20922;-69
2022/06/05 10:49:12;;;;;;;4.13;2.17;;;;;;;;;;4990904;28;20412;-72
2022/06/05 10:51:53;;;;;;;2.20;1.60;;;;;;;;;;4970399;28;20419;-69
2022/06/05 10:54:33;;;;;;;2.73;1.83;;;;;;;;;;4977453;28;20748;-70
2022/06/05 10:57:04;;;;;;;2.07;1.87;;;;;;;;;;4971719;28;20180;-70
2022/06/05 11:01:31;;;;;;;13.17;5.10;;;;;;;;;;4999620;27;20960;-61
2022/06/05 11:04:06;;;;;;;29.60;5.80;;;;;;;;;;5000268;28;20466;-66
2022/06/05 11:06:35;;;;;;;5.87;4.60;;;;;;;;;;4991587;28;105152;-70
2022/06/05 11:09:00;;;;;;;7.53;4.40;;;29.40;1.00;;;;;;1023779;27;20544;-68
2022/06/05 11:09:57;;;;;;;20.60;4.90;;;29.30;99.90;;;;;;1038704;28;20535;-67
2022/06/05 11:17:05;;;;;;;13.03;5.73;;;27.90;99.90;;;;;;5040524;27;20448;-68
2022/06/05 11:19:43;;;;;;;11.60;4.03;;;26.30;99.90;;;;;;4996230;28;20518;-68
2022/06/05 11:22:14;;;;;;;13.07;4.70;;;26.10;99.90;;;;;;5053636;28;20413;-66
2022/06/05 11:24:50;;;;;;;7.17;4.30;;;26.20;99.90;;;;;;5040962;28;20440;-67
2022/06/05 11:27:15;;;;;;;7.10;5.33;;;25.90;99.90;;;;;;5060198;28;20423;-68
2022/06/05 11:30:12;;;;;;;10.83;5.00;;;25.90;99.90;;;;;;5055612;28;20402;-68
2022/06/05 11:34:23;;;;;;;7.27;3.30;;;25.30;99.90;;;;;;5071992;28;20586;-73
2022/06/05 11:36:54;;;;;;;2.50;2.30;;;25.70;99.90;;;;;;5069095;28;20468;-72
2022/06/05 11:39:39;;;;;;;2.97;2.67;;;25.70;99.90;;;;;;5076124;28;20417;-72
2022/06/05 11:42:23;;;;;;;5.40;2.70;;;25.80;99.90;;;;;;5077511;28;20421;-73
2022/06/05 11:45:20;;;;;;;4.10;2.33;;;25.80;99.90;;;;;;5076986;28;20467;-73
2022/06/05 11:47:50;;;;;;;4.20;2.20;;;25.70;99.90;;;;;;5084972;28;20498;-73
2022/06/05 11:50:35;;;;;;;9.50;3.10;;;25.50;99.90;;;;;;5088704;28;20463;-72
2022/06/05 11:53:30;;;;;;;5.43;2.80;;;25.20;99.90;;;;;;5093287;28;20451;-73
2022/06/05 11:56:17;;;;;;;7.03;3.27;;;24.70;99.90;;;;;;5088534;28;20416;-73
2022/06/05 11:59:09;;;;;;;7.97;3.13;;;24.50;99.90;;;;;;5093848;28;20404;-72
2022/06/05 12:01:43;;;;;;;11.80;3.70;;;24.20;99.90;;;;;;5090041;28;20412;-73
2022/06/05 12:04:27;;;;;;;3.87;3.00;;;24.10;99.90;;;;;;5094133;28;20469;-71
2022/06/05 12:06:59;;;;;;;4.43;3.97;;;24.20;1.00;;;;;;5090553;28;20946;-73
2022/06/05 12:09:38;;;;;;;7.53;4.07;;;24.40;1.00;;;;;;5093318;28;20417;-73
2022/06/05 12:12:06;;;;;;;6.67;3.77;;;24.30;1.00;;;;;;5088006;28;20451;-71
2022/06/05 12:14:46;;;;;;;15.33;5.20;;;24.10;1.00;;;;;;5086477;28;20458;-72
2022/06/05 12:17:12;;;;;;;6.60;4.93;;;24.20;99.90;;;;;;5085385;28;20473;-72
2022/06/05 12:19:56;;;;;;;6.07;3.83;;;24.20;1.00;;;;;;5085287;28;20420;-72
2022/06/05 12:22:50;;;;;;;12.90;3.90;;;24.20;1.00;;;;;;5086734;28;20209;-71
2022/06/05 12:25:25;;;;;;;25.80;5.00;;;24.20;1.00;;;;;;5085622;28;20443;-71
2022/06/05 12:28:05;;;;;;;11.60;4.27;;;24.10;1.00;;;;;;5081072;28;20863;-75
2022/06/05 12:30:37;;;;;;;8.27;4.60;;;24.00;1.00;;;;;;5084565;28;20500;-72
2022/06/05 12:33:19;;;;;;;8.93;4.00;;;24.00;1.00;;;;;;5086483;28;20528;-73
2022/06/05 12:35:52;;;;;;;5.20;4.00;;;24.00;1.00;;;;;;5102576;22;20846;-70
2022/06/05 12:38:23;;;;;;;10.33;3.60;;;23.80;1.00;;;;;;5082486;28;20527;-72
2022/06/05 12:41:00;;;;;;;7.13;4.40;;;23.70;1.00;;;;;;5085320;28;20423;-71
2022/06/05 12:43:32;;;;;;;21.07;4.67;;;23.50;29.40;;;;;;5081599;28;20412;-69
2022/06/05 12:46:26;;;;;;;6.43;3.57;;;23.40;99.90;;;;;;5087301;28;20504;-70
2022/06/05 12:49:24;;;;;;;5.03;4.03;;;23.30;57.00;;;;;;5089099;28;20988;-69
2022/06/05 12:52:25;;;;;;;7.93;3.50;;;23.20;1.00;;;;;;5089741;28;20467;-70
2022/06/05 12:54:54;;;;;;;11.43;3.40;;;23.20;99.90;;;;;;5055896;28;20447;-69
2022/06/05 12:57:28;;;;;;;7.60;4.07;;;23.10;1.00;;;;;;5087175;28;20415;-68
2022/06/05 13:00:01;;;;;;;9.00;4.83;;;23.20;99.90;;;;;;5085328;28;20417;-68
2022/06/05 13:02:31;;;;;;;8.00;3.77;;;23.20;23.20;;;;;;5091443;28;20493;-69
2022/06/05 13:05:36;;;;;;;10.23;4.80;;;23.20;1.00;;;;;;5084367;28;20534;-69
2022/06/05 13:08:37;;;;;;;9.13;4.10;;;23.20;1.00;;;;;;5065431;28;20436;-69
2022/06/05 13:11:20;;;;;;;11.70;4.50;;;23.20;1.00;;;;;;5053671;28;20438;-69
2022/06/05 13:13:55;;;;;;;5.60;3.80;;;22.90;99.90;;;;;;5082217;28;20482;-69
2022/06/05 13:16:30;;;;;;;5.77;4.73;;;22.50;1.00;;;;;;5085403;28;20411;-69
2022/06/05 13:19:04;;;;;;;5.90;5.40;;;22.10;99.90;;;;;;5090081;28;20410;-69
2022/06/05 13:21:49;;;;;;;7.13;4.57;;;21.30;99.90;;;;;;5087602;28;20423;-69
2022/06/05 13:24:53;;;;;;;8.23;5.10;;;21.00;1.00;;;;;;5088495;28;20547;-69
2022/06/05 13:27:38;;;;;;;7.40;2.93;;;20.70;99.90;;;;;;5088625;28;20451;-70
2022/06/05 13:30:09;;;;;;;10.23;3.90;;;20.50;1.00;;;;;;5090613;28;20415;-70
2022/06/05 13:32:55;;;;;;;8.43;3.53;;;20.50;99.90;;;;;;5083375;28;20567;-70
2022/06/05 13:35:48;;;;;;;9.10;3.97;;;20.80;1.00;;;;;;5090326;28;20490;-70
2022/06/05 13:38:32;;;;;;;9.10;3.80;;;21.20;99.90;;;;;;5085844;28;20979;-70
2022/06/05 13:41:09;;;;;;;6.40;4.80;;;21.50;1.00;;;;;;5079434;28;20427;-70
2022/06/05 13:43:38;;;;;;;14.27;5.23;;;21.70;99.90;;;;;;5087568;28;20415;-70
2022/06/05 13:46:31;;;;;;;5.20;3.47;;;21.90;1.00;;;;;;5089108;28;20419;-70
2022/06/05 13:49:09;;;;;;;7.70;4.50;;;21.90;1.00;;;;;;5088027;28;20888;-70
2022/06/05 13:51:40;;;;;;;4.40;3.83;;;21.90;1.00;;;;;;5089325;28;20433;-70
2022/06/05 13:54:36;;;;;;;25.77;5.80;;;21.90;99.90;;;;;;5090287;28;20444;-70
2022/06/05 13:57:28;;;;;;;8.40;4.30;;;21.90;1.00;;;;;;5079153;28;20411;-70
2022/06/05 14:00:04;;;;;;;15.63;4.40;;;21.90;1.00;;;;;;5086203;28;20417;-74
2022/06/05 14:02:37;;;;;;;5.90;3.40;;;21.70;99.90;;;;;;5086811;28;20407;-70
2022/06/05 14:05:15;;;;;;;4.70;3.17;;;21.60;99.90;;;;;;5088073;28;20447;-71
2022/06/05 14:07:52;;;;;;;6.43;3.73;;;21.50;1.00;;;;;;5089116;28;20547;-71
2022/06/05 14:10:18;;;;;;;7.27;4.23;;;21.50;1.00;;;;;;5089014;28;20730;-70
2022/06/05 14:12:56;;;;;;;14.10;5.00;;;21.50;1.00;;;;;;5084495;28;20443;-68
2022/06/05 14:15:27;;;;;;;4.17;3.53;;;21.50;99.90;;;;;;5082273;28;20696;-70
2022/06/05 14:17:57;;;;;;;8.60;4.07;;;21.40;99.90;;;;;;5086647;28;20449;-70
2022/06/05 14:20:33;;;;;;;5.90;4.90;;;21.40;1.00;;;;;;5088241;28;20503;-70
2022/06/05 14:23:00;;;;;;;9.43;5.87;;;21.50;1.00;;;;;;5089730;28;20418;-71
2022/06/05 14:25:30;;;;;;;9.53;6.40;;;21.40;1.00;;;;;;5089535;28;20576;-70
2022/06/05 14:28:02;;;;;;;7.40;6.67;;;21.40;99.90;;;;;;5087735;28;20467;-71
2022/06/05 14:30:33;;;;;;;14.50;6.13;;;21.40;1.00;;;;;;5088189;28;20415;-70
2022/06/05 14:33:07;;;;;;;16.47;5.60;;;21.30;99.90;;;;;;5090057;28;20922;-70
2022/06/05 14:35:36;;;;;;;5.20;4.70;;;21.20;1.00;;;;;;5088406;28;20501;-70
2022/06/05 14:38:37;;;;;;;5.50;4.80;;;21.20;25.20;;;;;;5085606;28;20456;-71
2022/06/05 14:41:20;;;;;;;7.57;5.17;;;21.20;99.90;;;;;;5061107;28;20442;-70
2022/06/05 14:44:04;;;;;;;14.73;4.53;;;21.10;99.90;;;;;;5083934;28;20506;-70